Time;durP1;ratioP1;P1;durP2;ratioP2;P2;SDS_P1;SDS_P2;PMS_P1;PMS_P2;Temp;Humidity;BMP_temperature;BMP_pressure;BME280_temperature;BME280_humidity;BME280_pressure;Samples;Min_cycle;Max_cycle;Signal;HPM_P1;HPM_P2
2022/04/05 00:00:07;;;;;;;12.47;7.67;;;;;;;0.31;100.00;99712.38;1785345;79;21030;-70
2022/04/05 00:02:36;;;;;;;12.23;7.40;;;;;;;0.29;100.00;99712.49;1806578;79;21508;-70
2022/04/05 00:05:05;;;;;;;13.17;7.67;;;;;;;0.25;100.00;99701.72;1810291;79;21070;-69
2022/04/05 00:07:33;;;;;;;13.13;7.50;;;;;;;0.23;100.00;99699.66;1807611;79;21011;-69
2022/04/05 00:10:00;;;;;;;14.43;7.63;;;;;;;0.21;100.00;99702.05;1809046;79;21105;-68
2022/04/05 00:12:29;;;;;;;14.00;7.17;;;;;;;0.19;100.00;99704.81;1811282;79;21038;-70
2022/04/05 00:14:56;;;;;;;14.50;7.93;;;;;;;0.16;100.00;99693.07;1810463;79;21042;-70
2022/04/05 00:17:23;;;;;;;14.00;7.60;;;;;;;0.13;100.00;99691.50;1808767;79;21043;-70
2022/04/05 00:19:50;;;;;;;11.73;7.13;;;;;;;0.11;100.00;99685.45;1784479;79;21047;-70
2022/04/05 00:22:17;;;;;;;12.60;7.07;;;;;;;0.12;100.00;99687.63;1809601;79;21155;-70
2022/04/05 00:24:45;;;;;;;13.60;7.60;;;;;;;0.12;100.00;99687.13;1808833;79;20989;-70
2022/04/05 00:27:13;;;;;;;13.23;7.53;;;;;;;0.13;100.00;99688.00;1786672;79;21022;-69
2022/04/05 00:29:40;;;;;;;12.03;6.97;;;;;;;0.12;100.00;99676.98;1807588;79;21387;-70
2022/04/05 00:32:08;;;;;;;12.10;7.07;;;;;;;0.10;100.00;99677.09;1785270;79;21026;-70
2022/04/05 00:34:35;;;;;;;12.90;6.77;;;;;;;0.09;100.00;99670.09;1807543;79;21011;-69
2022/04/05 00:37:04;;;;;;;12.17;7.30;;;;;;;0.08;100.00;99673.70;1802403;79;21085;-69
2022/04/05 00:39:31;;;;;;;12.33;6.10;;;;;;;0.06;100.00;99669.48;1803549;79;20971;-69
2022/04/05 00:41:58;;;;;;;13.90;7.10;;;;;;;0.03;100.00;99664.38;1804136;79;21057;-69
2022/04/05 00:44:25;;;;;;;12.87;7.20;;;;;;;-0.03;100.00;99669.18;1785441;79;21062;-69
2022/04/05 00:46:54;;;;;;;12.20;7.00;;;;;;;-0.04;100.00;99656.00;1808662;79;21047;-69
2022/04/05 00:49:32;;;;;;;14.30;7.77;;;;;;;-0.06;100.00;99661.42;1809027;79;21035;-70
2022/04/05 00:52:00;;;;;;;15.90;7.93;;;;;;;-0.08;100.00;99663.35;1784029;79;21532;-69
2022/04/05 00:54:26;;;;;;;14.40;7.40;;;;;;;-0.08;100.00;99661.19;1760627;80;21014;-70
2022/04/05 00:56:56;;;;;;;12.43;7.40;;;;;;;-0.09;100.00;99657.69;1751369;81;21037;-69
2022/04/05 00:59:25;;;;;;;13.03;7.60;;;;;;;-0.10;100.00;99653.31;1751242;82;21515;-69
2022/04/05 01:01:52;;;;;;;14.60;7.93;;;;;;;-0.12;100.00;99649.92;1730378;82;20990;-70
2022/04/05 01:04:21;;;;;;;15.63;8.10;;;;;;;-0.15;100.00;99646.16;1727446;82;21511;-69
2022/04/05 01:06:49;;;;;;;14.60;7.90;;;;;;;-0.18;100.00;99649.03;1727137;82;21017;-69
2022/04/05 01:09:16;;;;;;;15.73;7.90;;;;;;;-0.20;100.00;99650.47;1720009;82;21038;-69
2022/04/05 01:11:43;;;;;;;12.20;7.10;;;;;;;-0.20;100.00;99650.95;1728107;81;21080;-69
2022/04/05 01:14:12;;;;;;;14.57;7.23;;;;;;;-0.21;100.00;99646.13;1747135;81;21054;-70
2022/04/05 01:16:40;;;;;;;13.47;7.60;;;;;;;-0.21;100.00;99643.47;1726374;82;21527;-69
2022/04/05 01:19:08;;;;;;;15.80;8.17;;;;;;;-0.23;100.00;99642.74;1747489;82;21077;-70
2022/04/05 01:21:38;;;;;;;14.23;7.60;;;;;;;-0.25;100.00;99644.67;1729515;82;21014;-70
2022/04/05 01:24:10;;;;;;;14.63;7.50;;;;;;;-0.27;100.00;99639.08;1751622;82;21034;-70
2022/04/05 01:26:49;;;;;;;15.83;7.80;;;;;;;-0.29;100.00;99637.86;1750395;82;21072;-70
2022/04/05 01:29:18;;;;;;;13.10;7.17;;;;;;;-0.29;100.00;99638.34;1750189;82;21085;-69
2022/04/05 01:31:47;;;;;;;13.23;7.43;;;;;;;-0.31;100.00;99634.47;1746269;81;21547;-70
2022/04/05 01:34:16;;;;;;;12.80;7.00;;;;;;;-0.32;100.00;99628.80;1721441;82;21018;-70
2022/04/05 01:36:45;;;;;;;12.37;7.33;;;;;;;-0.32;100.00;99626.61;1745593;81;21021;-69
2022/04/05 01:39:13;;;;;;;14.67;7.67;;;;;;;-0.35;100.00;99627.69;1749478;82;21034;-70
2022/04/05 01:41:40;;;;;;;13.03;7.10;;;;;;;-0.35;100.00;99629.48;1748221;82;21081;-69
2022/04/05 01:44:09;;;;;;;12.67;7.10;;;;;;;-0.37;100.00;99623.43;1750252;82;21061;-70
2022/04/05 01:46:38;;;;;;;14.37;7.37;;;;;;;-0.40;100.00;99616.06;1729803;82;21013;-69
2022/04/05 01:49:10;;;;;;;12.87;7.40;;;;;;;-0.42;100.00;99615.81;1724267;82;21038;-70
2022/04/05 01:51:37;;;;;;;14.53;8.08;;;;;;;-0.44;100.00;99614.59;1690849;83;21125;-70
2022/04/05 01:54:07;;;;;;;11.87;7.67;;;;;;;-0.46;100.00;99612.53;1708444;83;21053;-69
2022/04/05 01:56:44;;;;;;;13.03;7.77;;;;;;;-0.48;100.00;99609.15;1699428;83;21141;-70
2022/04/05 01:59:16;;;;;;;14.17;7.80;;;;;;;-0.50;100.00;99606.22;1697249;83;21096;-69
2022/04/05 02:01:44;;;;;;;14.45;7.95;;;;;;;-0.52;100.00;99601.50;1724508;83;21045;-70
2022/04/05 02:04:11;;;;;;;14.67;7.80;;;;;;;-0.56;100.00;99602.20;1724580;83;21621;-70
2022/04/05 02:06:39;;;;;;;13.27;7.90;;;;;;;-0.62;100.00;99604.83;1719347;83;21038;-69
2022/04/05 02:09:06;;;;;;;15.50;8.40;;;;;;;-0.66;100.00;99605.14;1696488;83;20990;-69
2022/04/05 02:11:35;;;;;;;16.83;9.30;;;;;;;-0.68;100.00;99608.39;1713614;84;21070;-70
2022/04/05 02:14:04;;;;;;;16.60;8.40;;;;;;;-0.69;100.00;99601.38;1711317;83;21111;-70
2022/04/05 02:16:33;;;;;;;14.40;8.23;;;;;;;-0.71;100.00;99596.17;1718969;82;21070;-69
2022/04/05 02:19:01;;;;;;;13.87;8.23;;;;;;;-0.72;100.00;99601.12;1719573;83;21072;-69
2022/04/05 02:21:29;;;;;;;12.90;7.90;;;;;;;-0.74;100.00;99593.76;1718904;83;21034;-70
2022/04/05 02:23:58;;;;;;;12.80;7.90;;;;;;;-0.75;100.00;99597.36;1723691;83;21499;-69
2022/04/05 02:26:27;;;;;;;14.73;8.37;;;;;;;-0.79;100.00;99598.05;1718969;83;21108;-70
2022/04/05 02:28:55;;;;;;;14.47;8.90;;;;;;;-0.80;100.00;99603.47;1723204;83;21616;-69
2022/04/05 02:31:23;;;;;;;15.97;8.57;;;;;;;-0.84;100.00;99601.52;1715379;83;21018;-69
2022/04/05 02:33:52;;;;;;;13.57;8.20;;;;;;;-0.85;100.00;99593.66;1719438;83;21093;-70
2022/04/05 02:36:24;;;;;;;15.83;8.58;;;;;;;-0.85;100.00;99594.98;1720073;83;21574;-70
2022/04/05 02:38:52;;;;;;;14.87;8.07;;;;;;;-0.87;100.00;99596.91;1717119;83;21046;-69
2022/04/05 02:41:19;;;;;;;14.93;8.73;;;;;;;-0.90;100.00;99598.44;1718816;83;21017;-70
2022/04/05 02:43:47;;;;;;;15.07;8.13;;;;;;;-0.93;100.00;99590.23;1723286;83;21085;-70
2022/04/05 02:46:15;;;;;;;13.83;8.07;;;;;;;-0.96;100.00;99591.77;1723235;83;21029;-70
2022/04/05 02:48:46;;;;;;;11.67;7.80;;;;;;;-0.96;100.00;99594.42;1764707;80;21032;-70
2022/04/05 02:51:15;;;;;;;15.03;8.30;;;;;;;-0.98;100.00;99587.05;1778183;80;21519;-69
2022/04/05 02:53:43;;;;;;;14.93;7.90;;;;;;;-1.02;100.00;99587.74;1779231;80;21011;-69
2022/04/05 02:56:11;;;;;;;14.30;8.20;;;;;;;-1.02;100.00;99586.42;1770687;80;21073;-69
2022/04/05 02:58:38;;;;;;;15.47;8.60;;;;;;;-1.03;100.00;99589.17;1776992;80;21030;-69
2022/04/05 03:01:06;;;;;;;16.10;8.37;;;;;;;-1.06;100.00;99581.42;1779312;80;21038;-69
2022/04/05 03:03:34;;;;;;;15.93;9.00;;;;;;;-1.07;100.00;99577.93;1734583;80;21069;-70
2022/04/05 03:06:02;;;;;;;16.57;8.90;;;;;;;-1.09;100.00;99575.03;1780849;80;21033;-69
2022/04/05 03:08:31;;;;;;;14.13;8.73;;;;;;;-1.11;100.00;99579.11;1750718;80;21026;-70
2022/04/05 03:11:01;;;;;;;14.97;8.87;;;;;;;-1.13;100.00;99574.85;1757202;80;21022;-69
2022/04/05 03:13:29;;;;;;;17.10;8.83;;;;;;;-1.16;100.00;99574.12;1761252;80;21057;-70
2022/04/05 03:15:57;;;;;;;14.80;8.53;;;;;;;-1.18;100.00;99574.70;1781213;80;21562;-69
2022/04/05 03:18:25;;;;;;;13.33;8.30;;;;;;;-1.20;100.00;99571.32;1781127;80;20994;-69
2022/04/05 03:20:53;;;;;;;15.63;8.53;;;;;;;-1.22;100.00;99569.71;1780871;80;21041;-70
2022/04/05 03:23:21;;;;;;;15.07;7.97;;;;;;;-1.24;100.00;99563.67;1780707;80;21498;-69
2022/04/05 03:25:49;;;;;;;14.70;8.10;;;;;;;-1.23;100.00;99562.73;1777283;80;21034;-70
2022/04/05 03:28:18;;;;;;;15.37;8.57;;;;;;;-1.26;100.00;99558.95;1756267;80;21065;-70
2022/04/05 03:30:47;;;;;;;14.37;8.70;;;;;;;-1.29;100.00;99558.70;1782931;80;21033;-69
2022/04/05 03:33:15;;;;;;;15.93;8.13;;;;;;;-1.29;100.00;99557.83;1779185;80;21034;-69
2022/04/05 03:35:43;;;;;;;15.63;8.53;;;;;;;-1.30;100.00;99556.16;1783705;80;21046;-70
2022/04/05 03:38:10;;;;;;;14.07;7.97;;;;;;;-1.34;100.00;99556.36;1759726;80;21112;-70
2022/04/05 03:40:38;;;;;;;14.60;8.03;;;;;;;-1.34;100.00;99555.03;1782246;80;21029;-68
2022/04/05 03:43:12;;;;;;;14.23;8.30;;;;;;;-1.34;100.00;99552.38;1783240;80;21616;-69
2022/04/05 03:45:37;;;;;;;13.30;7.73;;;;;;;-1.35;100.00;99545.86;1775799;80;21495;-69
2022/04/05 03:48:05;;;;;;;15.33;8.07;;;;;;;-1.36;100.00;99542.85;1758867;81;20998;-69
2022/04/05 03:50:32;;;;;;;12.97;7.93;;;;;;;-1.38;100.00;99546.94;1787421;80;21022;-69
2022/04/05 03:53:02;;;;;;;13.77;7.90;;;;;;;-1.37;100.00;99545.95;1755019;80;21021;-68
2022/04/05 03:55:31;;;;;;;14.67;8.17;;;;;;;-1.37;100.00;99544.63;1754755;80;21045;-69
2022/04/05 03:57:59;;;;;;;16.07;8.43;;;;;;;-1.39;100.00;99543.90;1750747;81;21041;-70
2022/04/05 04:00:29;;;;;;;15.07;8.30;;;;;;;-1.39;100.00;99542.57;1749577;81;20994;-69
2022/04/05 04:02:58;;;;;;;13.87;7.87;;;;;;;-1.39;100.00;99539.92;1656688;86;21503;-69
2022/04/05 04:05:26;;;;;;;13.57;7.77;;;;;;;-1.36;100.00;99539.71;1659303;85;21050;-69
2022/04/05 04:07:55;;;;;;;15.03;8.47;;;;;;;-1.33;100.00;99538.64;1661876;86;21049;-70
2022/04/05 04:10:25;;;;;;;14.50;8.10;;;;;;;-1.28;100.00;99537.00;1656630;85;21099;-68
2022/04/05 04:12:54;;;;;;;14.37;8.10;;;;;;;-1.27;100.00;99532.91;1663393;84;21022;-69
2022/04/05 04:15:22;;;;;;;16.30;8.83;;;;;;;-1.26;100.00;99523.98;1654974;86;21081;-69
2022/04/05 04:17:51;;;;;;;13.70;8.17;;;;;;;-1.24;100.00;99518.11;1651638;87;21632;-70
2022/04/05 04:20:18;;;;;;;14.97;8.53;;;;;;;-1.21;100.00;99521.86;1656872;84;21033;-68
2022/04/05 04:22:46;;;;;;;13.67;8.00;;;;;;;-1.18;100.00;99528.77;1656942;87;21588;-69
2022/04/05 04:25:14;;;;;;;15.00;8.50;;;;;;;-1.15;100.00;99537.84;1655111;86;21094;-68
2022/04/05 04:27:42;;;;;;;12.97;8.20;;;;;;;-1.12;100.00;99535.44;1657886;86;21049;-69
2022/04/05 04:30:10;;;;;;;14.00;8.40;;;;;;;-1.08;100.00;99536.45;1658579;85;21084;-71
2022/04/05 04:32:39;;;;;;;14.33;8.23;;;;;;;-1.05;100.00;99540.19;1633734;87;21051;-71
2022/04/05 04:35:08;;;;;;;13.00;8.30;;;;;;;-1.00;100.00;99538.55;1656818;87;21041;-70
2022/04/05 04:37:36;;;;;;;13.73;8.33;;;;;;;-0.99;100.00;99538.44;1633619;87;21053;-71
2022/04/05 04:40:04;;;;;;;15.20;8.00;;;;;;;-0.93;100.00;99541.13;1600867;87;21010;-69
2022/04/05 04:42:33;;;;;;;15.67;8.60;;;;;;;-0.89;100.00;99540.42;1636938;87;21045;-70
2022/04/05 04:45:01;;;;;;;14.63;8.53;;;;;;;-0.85;100.00;99533.47;1658012;86;21585;-70
2022/04/05 04:47:28;;;;;;;13.40;7.90;;;;;;;-0.80;100.00;99538.43;1659012;85;21057;-70
2022/04/05 04:49:55;;;;;;;14.60;8.77;;;;;;;-0.73;100.00;99541.01;1660873;86;21597;-70
2022/04/05 04:52:24;;;;;;;13.73;8.10;;;;;;;-0.63;100.00;99543.86;1658687;85;21049;-70
2022/04/05 04:54:52;;;;;;;16.07;8.93;;;;;;;-0.54;100.00;99536.54;1680145;85;21065;-70
2022/04/05 04:57:19;;;;;;;13.30;8.07;;;;;;;-0.42;100.00;99550.25;1646360;85;21603;-69
2022/04/05 04:59:46;;;;;;;17.33;9.30;;;;;;;-0.29;100.00;99542.70;1680420;82;21098;-70
2022/04/05 05:02:15;;;;;;;18.10;9.30;;;;;;;-0.15;100.00;99546.50;1739357;82;20994;-70
2022/04/05 05:04:43;;;;;;;16.67;9.07;;;;;;;0.02;100.00;99541.72;1722910;82;21077;-70
2022/04/05 05:07:10;;;;;;;16.47;8.70;;;;;;;0.12;100.00;99546.70;1785901;79;21038;-70
2022/04/05 05:09:37;;;;;;;16.40;8.20;;;;;;;0.20;100.00;99540.34;1778542;79;21038;-69
2022/04/05 05:12:05;;;;;;;14.90;7.90;;;;;;;0.34;100.00;99538.80;1777167;79;21070;-70
2022/04/05 05:14:33;;;;;;;16.43;8.50;;;;;;;0.45;100.00;99549.09;1777062;79;21006;-68
2022/04/05 05:17:01;;;;;;;15.07;8.17;;;;;;;0.55;100.00;99558.91;1776224;79;21097;-69
2022/04/05 05:19:29;;;;;;;18.13;8.73;;;;;;;0.70;100.00;99566.16;1780309;79;21531;-70
2022/04/05 05:21:56;;;;;;;17.77;8.97;;;;;;;0.84;100.00;99583.72;1779310;79;21550;-69
2022/04/05 05:24:23;;;;;;;19.67;10.43;;;;;;;0.99;100.00;99590.13;1779240;79;21483;-70
2022/04/05 05:26:50;;;;;;;15.77;8.20;;;;;;;1.12;100.00;99597.53;1798332;79;21489;-69
2022/04/05 05:29:18;;;;;;;15.23;8.33;;;;;;;1.29;100.00;99610.83;1800647;79;21029;-70
2022/04/05 05:31:45;;;;;;;15.30;8.03;;;;;;;1.47;100.00;99609.83;1790267;79;21018;-69
2022/04/05 05:34:20;;;;;;;15.30;8.33;;;;;;;1.64;100.00;99608.48;1780963;80;21093;-70
2022/04/05 05:36:42;;;;;;;13.60;8.00;;;;;;;1.70;100.00;99634.66;1754152;80;21115;-69
2022/04/05 05:39:09;;;;;;;15.47;7.93;;;;;;;1.69;100.00;99644.45;1759832;80;21081;-69
2022/04/05 05:41:36;;;;;;;14.27;8.30;;;;;;;1.67;100.00;99651.73;1780977;80;21034;-69
2022/04/05 05:44:04;;;;;;;12.97;7.77;;;;;;;1.62;100.00;99655.73;1778937;80;21021;-70
2022/04/05 05:46:31;;;;;;;14.57;8.13;;;;;;;1.64;100.00;99655.96;1760479;80;21001;-68
2022/04/05 05:48:58;;;;;;;16.90;8.17;;;;;;;1.67;100.00;99660.22;1778845;80;20963;-70
2022/04/05 05:51:25;;;;;;;14.70;8.63;;;;;;;1.69;100.00;99662.27;1760469;80;21604;-71
2022/04/05 05:53:52;;;;;;;14.63;8.70;;;;;;;1.69;100.00;99664.94;1781704;80;21495;-69
2022/04/05 05:56:19;;;;;;;14.07;8.57;;;;;;;1.67;100.00;99665.05;1753069;80;21015;-70
2022/04/05 05:58:50;;;;;;;14.53;8.53;;;;;;;1.76;100.00;99666.63;1769230;80;20975;-70
2022/04/05 06:01:16;;;;;;;15.97;8.53;;;;;;;1.80;100.00;99666.73;1780759;80;21557;-68
2022/04/05 06:03:43;;;;;;;15.60;8.03;;;;;;;1.82;100.00;99666.11;1759584;80;21049;-68
2022/04/05 06:06:12;;;;;;;18.30;8.40;;;;;;;1.81;100.00;99667.11;1782592;80;21072;-68
2022/04/05 06:08:40;;;;;;;14.77;8.77;;;;;;;1.80;100.00;99674.73;1781151;80;20994;-69
2022/04/05 06:11:08;;;;;;;15.43;8.50;;;;;;;1.75;100.00;99672.91;1760287;80;21029;-70
2022/04/05 06:13:35;;;;;;;16.30;9.13;;;;;;;1.70;100.00;99678.14;1781636;80;21029;-69
2022/04/05 06:16:09;;;;;;;16.07;8.40;;;;;;;1.76;100.00;99662.62;1780179;80;21018;-69
2022/04/05 06:18:38;;;;;;;15.03;8.10;;;;;;;1.88;100.00;99665.14;1729690;82;21049;-69
2022/04/05 06:21:05;;;;;;;19.23;10.63;;;;;;;2.04;100.00;99657.23;1691012;83;21053;-71
2022/04/05 06:23:33;;;;;;;22.00;13.43;;;;;;;2.13;100.00;99661.80;1742243;82;21451;-67
2022/04/05 06:26:00;;;;;;;14.83;8.97;;;;;;;2.23;100.00;99664.55;1670114;85;21631;-70
2022/04/05 06:28:31;;;;;;;16.33;9.00;;;;;;;2.36;100.00;99665.73;1659653;85;21054;-69
2022/04/05 06:31:00;;;;;;;17.60;9.47;;;;;;;2.49;100.00;99669.55;1664939;84;21042;-69
2022/04/05 06:33:27;;;;;;;18.10;9.10;;;;;;;2.63;100.00;99666.56;1632653;85;21524;-69
2022/04/05 06:35:57;;;;;;;14.13;8.67;;;;;;;2.72;100.00;99660.44;1654073;85;21024;-69
2022/04/05 06:38:24;;;;;;;13.43;8.87;;;;;;;2.78;100.00;99650.59;1642097;86;21026;-70
2022/04/05 06:40:52;;;;;;;15.77;8.93;;;;;;;2.82;100.00;99653.84;1635665;86;21094;-69
2022/04/05 06:43:20;;;;;;;25.83;10.13;;;;;;;2.82;100.00;99655.18;1627507;86;21063;-69
2022/04/05 06:45:47;;;;;;;19.00;10.43;;;;;;;2.88;100.00;99648.46;1624951;88;21073;-70
2022/04/05 06:48:14;;;;;;;20.73;11.00;;;;;;;3.02;100.00;99644.11;1657353;86;21074;-69
2022/04/05 06:50:41;;;;;;;25.00;14.30;;;;;;;3.12;100.00;99638.84;1632925;88;21067;-69
2022/04/05 06:53:08;;;;;;;22.47;11.07;;;;;;;3.20;100.00;99643.00;1655301;85;21023;-68
2022/04/05 06:55:38;;;;;;;20.27;9.90;;;;;;;3.26;100.00;99643.82;1663428;83;21034;-69
2022/04/05 06:58:06;;;;;;;21.63;11.57;;;;;;;3.33;100.00;99647.64;1686315;84;21068;-70
2022/04/05 07:00:35;;;;;;;18.47;8.67;;;;;;;3.42;100.00;99649.51;1687711;84;21066;-69
2022/04/05 07:03:05;;;;;;;20.67;9.80;;;;;;;3.46;100.00;99647.91;1683366;84;21019;-68
2022/04/05 07:05:33;;;;;;;17.20;9.20;;;;;;;3.47;100.00;99657.13;1686382;83;21552;-69
2022/04/05 07:08:00;;;;;;;18.03;9.40;;;;;;;3.50;100.00;99656.00;1686806;84;21515;-69
2022/04/05 07:10:29;;;;;;;20.27;9.63;;;;;;;3.58;100.00;99667.72;1683835;84;21030;-69
2022/04/05 07:12:57;;;;;;;19.70;9.33;;;;;;;3.68;100.00;99665.06;1687489;84;21003;-70
2022/04/05 07:15:26;;;;;;;16.67;8.40;;;;;;;3.81;100.00;99666.17;1688959;84;21083;-70
2022/04/05 07:17:54;;;;;;;20.07;9.30;;;;;;;3.95;100.00;99671.63;1686211;84;22422;-68
2022/04/05 07:20:21;;;;;;;17.83;9.10;;;;;;;4.09;100.00;99673.91;1687579;85;21082;-69
2022/04/05 07:22:49;;;;;;;16.23;8.53;;;;;;;4.25;100.00;99665.34;1687731;85;21573;-69
2022/04/05 07:25:16;;;;;;;15.43;8.97;;;;;;;4.42;100.00;99677.16;1686487;85;21089;-70
2022/04/05 07:27:45;;;;;;;18.50;8.53;;;;;;;4.64;100.00;99671.16;1663815;85;21618;-71
2022/04/05 07:30:13;;;;;;;18.30;9.20;;;;;;;4.86;100.00;99666.84;1686422;85;21586;-69
2022/04/05 07:32:42;;;;;;;13.97;7.33;;;;;;;5.05;100.00;99656.59;1685827;85;21014;-68
2022/04/05 07:35:10;;;;;;;14.03;7.40;;;;;;;5.20;100.00;99665.51;1725494;81;21050;-70
2022/04/05 07:37:38;;;;;;;12.63;7.00;;;;;;;5.29;100.00;99651.22;1769095;81;21034;-69
2022/04/05 07:40:10;;;;;;;16.37;8.13;;;;;;;5.34;100.00;99643.59;1753753;81;21588;-70
2022/04/05 07:42:41;;;;;;;12.73;7.70;;;;;;;5.46;100.00;99646.94;1774475;81;21035;-70
2022/04/05 07:45:09;;;;;;;18.47;9.23;;;;;;;5.73;100.00;99623.79;1752136;81;21077;-69
2022/04/05 07:47:37;;;;;;;14.23;8.20;;;;;;;5.94;100.00;99618.98;1769054;80;21087;-68
2022/04/05 07:50:05;;;;;;;13.77;8.10;;;;;;;5.87;100.00;99613.88;1752882;81;21003;-69
2022/04/05 07:52:32;;;;;;;17.30;8.63;;;;;;;5.70;100.00;99587.36;1773297;81;20991;-70
2022/04/05 07:54:59;;;;;;;12.13;7.63;;;;;;;5.66;100.00;99592.19;1731084;81;21226;-70
2022/04/05 07:57:26;;;;;;;15.27;8.50;;;;;;;5.64;100.00;99584.79;1686581;84;21507;-70
2022/04/05 07:59:53;;;;;;;15.93;7.37;;;;;;;5.59;100.00;99586.23;1687132;85;21550;-69
2022/04/05 08:02:22;;;;;;;19.27;9.03;;;;;;;5.60;100.00;99574.53;1664340;85;21053;-68
2022/04/05 08:04:49;;;;;;;18.17;8.83;;;;;;;5.63;100.00;99565.69;1665018;85;21476;-69
2022/04/05 08:07:17;;;;;;;14.00;6.83;;;;;;;5.77;100.00;99552.73;1691371;85;21084;-68
2022/04/05 08:09:45;;;;;;;21.00;7.40;;;;;;;6.04;100.00;99547.84;1691291;85;21196;-68
2022/04/05 08:12:13;;;;;;;12.27;6.80;;;;;;;6.10;100.00;99555.27;1657256;85;21038;-69
2022/04/05 08:14:40;;;;;;;12.77;6.70;;;;;;;6.18;100.00;99557.17;1686937;83;21057;-69
2022/04/05 08:17:10;;;;;;;14.57;6.83;;;;;;;6.32;100.00;99559.80;1678694;85;21972;-69
2022/04/05 08:19:38;;;;;;;12.37;6.07;;;;;;;6.63;100.00;99557.53;1687254;83;21089;-67
2022/04/05 08:22:08;;;;;;;10.80;6.80;;;;;;;6.72;100.00;99557.92;1662255;85;21038;-69
2022/04/05 08:24:36;;;;;;;12.60;7.37;;;;;;;6.68;100.00;99554.39;1716711;83;21551;-69
2022/04/05 08:27:05;;;;;;;11.70;7.07;;;;;;;6.68;100.00;99561.94;1756422;81;21063;-68
2022/04/05 08:29:32;;;;;;;13.73;6.90;;;;;;;6.76;100.00;99560.63;1730828;81;21043;-69
2022/04/05 08:31:59;;;;;;;12.13;6.27;;;;;;;6.74;100.00;99563.14;1750612;82;21038;-68
2022/04/05 08:34:26;;;;;;;15.30;6.37;;;;;;;6.70;100.00;99551.87;1750491;82;21049;-69
2022/04/05 08:36:54;;;;;;;11.67;5.77;;;;;;;6.53;100.00;99569.70;1728625;82;21010;-69
2022/04/05 08:39:22;;;;;;;10.27;6.00;;;;;;;6.49;100.00;99562.14;1749845;81;21042;-69
2022/04/05 08:41:52;;;;;;;11.40;6.00;;;;;;;6.51;100.00;99574.91;1721026;82;21120;-70
2022/04/05 08:44:19;;;;;;;10.63;5.97;;;;;;;6.52;100.00;99567.20;1745910;81;21080;-70
2022/04/05 08:46:46;;;;;;;11.23;6.23;;;;;;;6.48;100.00;99561.78;1729544;81;21029;-69
2022/04/05 08:49:13;;;;;;;11.20;6.20;;;;;;;6.46;100.00;99556.08;1749507;81;21049;-70
2022/04/05 08:51:41;;;;;;;9.93;6.10;;;;;;;6.50;100.00;99560.64;1729170;82;21542;-69
2022/04/05 08:54:08;;;;;;;11.20;6.10;;;;;;;6.49;100.00;99551.39;1761013;81;21042;-69
2022/04/05 08:56:36;;;;;;;12.97;6.53;;;;;;;6.48;100.00;99548.34;1796834;79;21014;-67
2022/04/05 08:59:04;;;;;;;8.87;5.87;;;;;;;6.45;100.00;99554.38;1785081;79;21078;-69
2022/04/05 09:01:34;;;;;;;9.33;6.30;;;;;;;6.46;100.00;99549.84;1801763;79;21019;-70
2022/04/05 09:04:01;;;;;;;14.43;6.40;;;;;;;6.50;100.00;99542.31;1801924;79;21533;-71
2022/04/05 09:06:30;;;;;;;11.13;6.17;;;;;;;6.59;100.00;99540.05;1812440;79;21022;-70
2022/04/05 09:09:14;;;;;;;12.73;6.67;;;;;;;6.69;100.00;99532.70;1782858;78;21064;-70
2022/04/05 09:11:52;;;;;;;14.23;6.20;;;;;;;6.69;100.00;99544.80;1805336;79;21002;-69
2022/04/05 09:14:26;;;;;;;11.97;6.37;;;;;;;6.59;100.00;99526.11;1804396;79;21337;-69
2022/04/05 09:17:06;;;;;;;12.27;6.27;;;;;;;6.48;100.00;99534.92;1661548;85;21129;-69
2022/04/05 09:19:42;;;;;;;9.27;5.90;;;;;;;6.42;100.00;99533.70;1613119;88;21203;-69
2022/04/05 09:22:10;;;;;;;14.17;6.47;;;;;;;6.42;100.00;99523.80;1601123;89;21144;-71
2022/04/05 09:27:11;;;;;;;8.53;5.80;;;;;;;6.51;100.00;99517.16;1591564;90;21613;-69
2022/04/05 09:29:51;;;;;;;9.90;6.27;;;;;;;6.57;100.00;99533.97;1556869;91;21124;-72
2022/04/05 09:32:37;;;;;;;11.03;6.07;;;;;;;6.60;100.00;99513.52;1577303;89;21143;-72
2022/04/05 09:35:08;;;;;;;11.27;6.40;;;;;;;6.65;100.00;99520.59;1543197;91;21347;-75
2022/04/05 09:37:39;;;;;;;12.87;6.93;;;;;;;6.74;100.00;99508.89;1544328;92;21172;-71
2022/04/05 09:40:34;;;;;;;10.23;5.87;;;;;;;6.74;100.00;99528.21;1550063;91;21117;-71
2022/04/05 09:43:07;;;;;;;16.03;7.47;;;;;;;6.69;100.00;99504.49;1540306;92;21133;-70
2022/04/05 09:45:57;;;;;;;11.30;5.92;;;;;;;6.67;100.00;99497.61;1552818;92;21678;-70
2022/04/05 09:48:27;;;;;;;11.83;6.80;;;;;;;6.67;100.00;99498.44;1550698;92;21153;-69
2022/04/05 09:51:12;;;;;;;12.70;5.93;;;;;;;6.73;100.00;99488.42;1554525;92;21145;-68
2022/04/05 09:53:50;;;;;;;11.70;6.10;;;;;;;6.82;100.00;99488.80;1539444;91;21125;-69
2022/04/05 09:56:32;;;;;;;12.47;6.23;;;;;;;7.00;100.00;99488.70;1541440;90;21554;-70
2022/04/05 09:59:06;;;;;;;14.60;6.47;;;;;;;7.19;100.00;99481.40;1556985;91;21050;-69
2022/04/05 10:01:36;;;;;;;9.50;6.03;;;;;;;7.33;100.00;99479.91;1556573;92;21572;-69
2022/04/05 10:04:12;;;;;;;9.83;5.87;;;;;;;7.28;100.00;99485.79;1554576;92;21143;-69
2022/04/05 10:06:43;;;;;;;14.03;6.87;;;;;;;7.19;100.00;99480.05;1552599;91;21117;-67
2022/04/05 10:09:11;;;;;;;9.83;5.80;;;;;;;7.14;100.00;99489.11;1554638;92;21105;-70
2022/04/05 10:11:40;;;;;;;9.47;6.07;;;;;;;7.13;100.00;99487.41;1553620;92;21114;-67
2022/04/05 10:14:09;;;;;;;9.40;5.33;;;;;;;7.12;100.00;99502.70;1554839;92;21074;-69
2022/04/05 10:16:36;;;;;;;9.90;5.87;;;;;;;7.05;100.00;99478.83;1600744;90;21109;-68
2022/04/05 10:19:09;;;;;;;10.70;6.17;;;;;;;6.96;100.00;99494.07;1568131;91;21082;-70
2022/04/05 10:21:41;;;;;;;9.73;6.27;;;;;;;6.90;100.00;99451.70;1598901;90;21081;-70
2022/04/05 10:24:09;;;;;;;11.73;6.53;;;;;;;6.93;100.00;99470.70;1594696;88;21066;-71
2022/04/05 10:26:38;;;;;;;15.63;6.83;;;;;;;7.05;100.00;99468.07;1577115;89;21777;-70
2022/04/05 10:29:15;;;;;;;11.77;5.80;;;;;;;7.16;100.00;99459.69;1625852;88;21630;-70
2022/04/05 10:31:57;;;;;;;10.77;5.57;;;;;;;7.28;100.00;99476.38;1564510;90;21175;-72
2022/04/05 10:34:34;;;;;;;11.10;5.83;;;;;;;7.36;100.00;99475.03;1566080;90;21126;-69
2022/04/05 10:37:17;;;;;;;10.60;6.30;;;;;;;7.33;100.00;99493.34;1561632;90;21133;-71
2022/04/05 10:40:01;;;;;;;9.30;5.50;;;;;;;7.32;100.00;99458.90;1564743;89;21075;-70
2022/04/05 10:42:37;;;;;;;11.00;5.80;;;;;;;7.28;100.00;99454.86;1532340;93;21112;-73
2022/04/05 10:48:18;;;;;;;19.47;6.20;;;;;;;7.27;100.00;99481.41;1459052;95;21594;-68
2022/04/05 10:51:05;;;;;;;12.27;5.70;;;;;;;7.32;100.00;99463.45;1506124;95;21105;-70
2022/04/05 10:53:36;;;;;;;8.50;5.37;;;;;;;7.34;100.00;99464.12;1494400;95;21634;-70
2022/04/05 10:56:10;;;;;;;7.10;5.20;;;;;;;7.28;100.00;99453.52;1495971;95;21164;-69
2022/04/05 10:58:50;;;;;;;10.67;5.80;;;;;;;7.28;100.00;99452.66;1483518;96;21159;-69
2022/04/05 11:01:45;;;;;;;8.97;5.53;;;;;;;7.35;100.00;99439.75;1387880;103;21164;-70
2022/04/05 11:04:29;;;;;;;8.17;5.27;;;;;;;7.48;100.00;99439.77;1389160;103;21160;-71
2022/04/05 11:07:09;;;;;;;12.93;5.17;;;;;;;7.80;100.00;99427.67;1427468;100;21122;-70
2022/04/05 11:09:46;;;;;;;8.87;5.20;;;;;;;8.06;100.00;99433.91;1430969;100;21134;-70
2022/04/05 11:12:30;;;;;;;11.73;5.07;;;;;;;8.19;100.00;99427.48;1404468;101;21171;-70
2022/04/05 11:15:03;;;;;;;11.60;5.37;;;;;;;8.16;100.00;99438.59;1402141;102;21132;-71
2022/04/05 11:17:29;;;;;;;9.00;5.30;;;;;;;8.13;100.00;99430.88;1409118;100;21093;-69
2022/04/05 11:19:58;;;;;;;9.00;4.60;;;;;;;8.10;100.00;99446.85;1427980;99;21100;-74
2022/04/05 11:22:31;;;;;;;9.67;5.40;;;;;;;8.10;100.00;99430.70;1444927;99;21115;-70
2022/04/05 11:25:07;;;;;;;7.77;4.63;;;;;;;8.07;100.00;99420.77;1444156;99;21122;-71
2022/04/05 11:27:48;;;;;;;7.77;4.80;;;;;;;8.12;100.00;99422.45;1446341;97;21087;-70
2022/04/05 11:30:30;;;;;;;8.07;4.73;;;;;;;8.09;100.00;99420.09;1463633;97;21121;-71
2022/04/05 11:33:22;;;;;;;8.00;4.87;;;;;;;8.12;100.00;99410.33;1449873;98;21132;-69
2022/04/05 11:35:58;;;;;;;6.77;4.60;;;;;;;8.12;100.00;99410.33;1446254;99;22344;-69
2022/04/05 11:38:32;;;;;;;19.33;4.77;;;;;;;8.19;100.00;99405.94;1444542;99;21163;-70